Terminal Aerodrome Forecast
Issued by NWS Charleston, SC

Current Version | Previous Version | Text Only | Print | Product List | Glossary On
Versions: 1 2 3 4 5 6 7 8 9 10 11 12 13 14 15 16 17 18 19 20 21 22 23 24 25 26
000
FTUS42 KCHS 261725
TAFCHS
TAF
KCHS 261725Z 2618/2718 21008KT P6SM SCT020 SCT070
     FM262000 18012G18KT P6SM BKN060
     FM262300 19009KT P6SM BKN050
     FM270600 22007KT P6SM SCT015 OVC040
     FM271000 24008KT 5SM -SHRA SCT010 BKN035=

USA.gov is the U.S. government's official web portal to all federal, state and local government web resources and services.